Time;durP1;ratioP1;P1;durP2;ratioP2;P2;SDS_P1;SDS_P2;PMS_P1;PMS_P2;Temp;Humidity;BMP_temperature;BMP_pressure;BME280_temperature;BME280_humidity;BME280_pressure;Samples;Min_cycle;Max_cycle;Signal;HPM_P1;HPM_P2
2023/08/06 02:39:39;;;;;;;0.00;0.00;;;15.00;99.90;;;;;;667336;22;20429;-82
2023/08/06 02:42:08;;;;;;;0.00;0.00;;;15.00;99.90;;;;;;5074994;28;20040;-89
2023/08/06 02:44:35;;;;;;;0.00;0.00;;;;;;;;;;5072715;28;20009;-88
2023/08/06 02:47:01;;;;;;;0.00;0.00;;;;;;;;;;5074683;28;20011;-88
2023/08/06 02:49:27;;;;;;;0.00;0.00;;;;;;;;;;5075998;28;20023;-88
2023/08/06 02:51:53;;;;;;;0.00;0.00;;;;;;;;;;5072148;28;20005;-87
2023/08/06 05:19:12;;;;;;;0.00;0.00;;;;;;;;;;5030668;28;20046;-90
2023/08/06 05:21:39;;;;;;;0.00;0.00;;;;;;;;;;5030314;28;20052;-89
2023/08/06 05:24:05;;;;;;;0.00;0.00;;;;;;;;;;5031458;28;20446;-90
2023/08/06 05:26:31;;;;;;;0.00;0.00;;;;;;;;;;5022821;28;20041;-89
2023/08/06 05:28:57;;;;;;;0.00;0.00;;;;;;;;;;5029810;28;20057;-90
2023/08/06 05:31:23;;;;;;;0.00;0.00;;;;;;;;;;5035459;28;20021;-90
2023/08/06 05:33:49;;;;;;;0.00;0.00;;;;;;;;;;5022780;28;20029;-90
2023/08/06 05:36:15;;;;;;;0.00;0.00;;;;;;;;;;5029214;28;20113;-90
2023/08/06 05:38:40;;;;;;;0.00;0.00;;;14.30;99.90;;;;;;5028580;28;20021;-90
2023/08/06 05:41:06;;;;;;;0.08;0.08;;;;;;;;;;5022615;28;20030;-90
2023/08/06 05:43:32;;;;;;;0.00;0.00;;;;;;;;;;5023824;28;20478;-89
2023/08/06 05:45:58;;;;;;;0.00;0.00;;;;;;;;;;5025797;28;20475;-89
2023/08/06 05:48:24;;;;;;;0.00;0.00;;;;;;;;;;5019954;28;20058;-90
2023/08/06 05:50:51;;;;;;;0.00;0.00;;;14.70;99.90;;;;;;5040125;28;20028;-89
2023/08/06 05:53:17;;;;;;;0.10;0.10;;;14.70;99.90;;;;;;5027471;28;20030;-89
2023/08/06 05:55:43;;;;;;;0.00;0.00;;;;;;;;;;5022510;28;20381;-89
2023/08/06 05:58:09;;;;;;;0.00;0.00;;;14.80;99.90;;;;;;5041672;28;20022;-89
2023/08/06 06:00:35;;;;;;;0.00;0.00;;;;;;;;;;5026295;28;20127;-89
2023/08/06 06:03:00;;;;;;;0.00;0.00;;;14.90;99.90;;;;;;5033139;28;20044;-89
2023/08/06 06:05:26;;;;;;;0.00;0.00;;;;;;;;;;5032414;28;20033;-90
2023/08/06 06:07:52;;;;;;;0.00;0.00;;;;;;;;;;5031334;28;20076;-91
2023/08/06 06:10:18;;;;;;;0.00;0.00;;;;;;;;;;5031630;28;20040;-90
2023/08/06 06:12:44;;;;;;;0.00;0.00;;;;;;;;;;5020752;28;20032;-90
2023/08/06 06:15:10;;;;;;;0.00;0.00;;;;;;;;;;5030275;28;20144;-90
2023/08/06 06:17:36;;;;;;;0.00;0.00;;;15.30;99.90;;;;;;5033890;28;20037;-90
2023/08/06 06:20:04;;;;;;;0.00;0.00;;;;;;;;;;5034592;28;20026;-89
2023/08/06 06:22:29;;;;;;;0.00;0.00;;;15.20;99.90;;;;;;5036048;28;20040;-90
2023/08/06 06:24:55;;;;;;;0.00;0.00;;;15.30;99.90;;;;;;5033533;28;20482;-90
2023/08/06 06:27:21;;;;;;;0.10;0.10;;;;;;;;;;5024473;28;20030;-89
2023/08/06 06:29:47;;;;;;;0.00;0.00;;;;;;;;;;5019534;28;20128;-89
2023/08/06 06:32:13;;;;;;;0.00;0.00;;;;;;;;;;5037467;28;20050;-89
2023/08/06 06:34:38;;;;;;;0.00;0.00;;;15.70;99.90;;;;;;5033117;28;20112;-89
2023/08/06 06:37:04;;;;;;;0.00;0.00;;;15.70;99.90;;;;;;5033548;28;20112;-89
2023/08/06 06:39:30;;;;;;;0.00;0.00;;;15.60;99.90;;;;;;5033252;28;20112;-89
2023/08/06 06:41:55;;;;;;;0.00;0.00;;;15.70;99.90;;;;;;5033816;28;20160;-91
2023/08/06 06:44:21;;;;;;;0.00;0.00;;;15.70;99.90;;;;;;5033995;28;20482;-90
2023/08/06 06:46:47;;;;;;;0.00;0.00;;;;;;;;;;5032695;28;20033;-89
2023/08/06 06:49:12;;;;;;;0.00;0.00;;;15.80;99.90;;;;;;5033956;28;20057;-90
2023/08/06 06:51:38;;;;;;;0.00;0.00;;;15.90;99.90;;;;;;5033663;28;20095;-90
2023/08/06 06:54:04;;;;;;;0.00;0.00;;;;;;;;;;5037009;28;20059;-89
2023/08/06 06:56:29;;;;;;;0.00;0.00;;;16.20;99.90;;;;;;5053444;28;20028;-89
2023/08/06 06:58:55;;;;;;;0.00;0.00;;;16.20;99.90;;;;;;5053194;28;20033;-90
2023/08/06 07:01:20;;;;;;;0.00;0.00;;;16.30;99.90;;;;;;5051016;28;20017;-90
2023/08/06 07:03:46;;;;;;;0.00;0.00;;;;;;;;;;5032573;28;20064;-89
2023/08/06 07:06:12;;;;;;;0.00;0.00;;;16.40;99.90;;;;;;5032999;28;20022;-92
2023/08/06 07:08:38;;;;;;;0.00;0.00;;;;;;;;;;5033138;28;20025;-89
2023/08/06 07:11:05;;;;;;;0.00;0.00;;;16.50;99.90;;;;;;5032540;28;20034;-89
2023/08/06 07:13:32;;;;;;;0.00;0.00;;;16.50;99.90;;;;;;5033373;28;20384;-90
2023/08/06 07:15:58;;;;;;;0.00;0.00;;;;;;;;;;5042646;28;20553;-90
2023/08/06 07:18:24;;;;;;;0.00;0.00;;;16.60;99.90;;;;;;5035217;28;20065;-88
2023/08/06 07:20:51;;;;;;;0.00;0.00;;;16.50;99.90;;;;;;5043147;28;20067;-90
2023/08/06 07:23:17;;;;;;;0.00;0.00;;;17.80;99.90;;;;;;5052708;28;20025;-90
2023/08/06 07:25:42;;;;;;;0.00;0.00;;;16.60;99.90;;;;;;5052728;28;20029;-90
2023/08/06 07:28:08;;;;;;;0.00;0.00;;;16.90;99.90;;;;;;5052810;28;20040;-90
2023/08/06 07:30:34;;;;;;;0.00;0.00;;;;;;;;;;5030955;28;20030;-89
2023/08/06 07:33:00;;;;;;;0.00;0.00;;;;;;;;;;5019938;28;20088;-90
2023/08/06 07:35:28;;;;;;;0.00;0.00;;;16.80;99.90;;;;;;5013201;28;20030;-90
2023/08/06 07:37:54;;;;;;;0.00;0.00;;;16.80;99.90;;;;;;5020608;28;20057;-90
2023/08/06 07:40:19;;;;;;;0.00;0.00;;;16.80;99.90;;;;;;5029722;28;20061;-90
2023/08/06 07:42:45;;;;;;;0.00;0.00;;;;;;;;;;5041791;28;20107;-89
2023/08/06 07:45:11;;;;;;;0.00;0.00;;;16.90;99.90;;;;;;5032621;28;20022;-90
2023/08/06 07:47:37;;;;;;;0.00;0.00;;;17.10;99.90;;;;;;5026573;28;20056;-90
2023/08/06 07:50:03;;;;;;;0.00;0.00;;;;;;;;;;5037661;28;20386;-90
2023/08/06 07:52:28;;;;;;;0.00;0.00;;;17.20;99.90;;;;;;5026139;28;20030;-89
2023/08/06 07:54:54;;;;;;;0.00;0.00;;;17.30;99.90;;;;;;5026545;28;20352;-90
2023/08/06 07:57:19;;;;;;;0.00;0.00;;;17.20;99.90;;;;;;5031336;28;20321;-90
2023/08/06 07:59:45;;;;;;;0.00;0.00;;;17.30;99.90;;;;;;5029999;28;20517;-90
2023/08/06 08:02:10;;;;;;;0.00;0.00;;;19.00;99.90;;;;;;5029775;28;20018;-90
2023/08/06 08:04:36;;;;;;;0.00;0.00;;;17.50;99.90;;;;;;5033191;28;20163;-89
2023/08/06 08:07:02;;;;;;;0.00;0.00;;;;;;;;;;5026326;28;20037;-88
2023/08/06 08:09:27;;;;;;;0.00;0.00;;;17.60;99.90;;;;;;5034955;28;20054;-90
2023/08/06 08:11:53;;;;;;;0.00;0.00;;;;;;;;;;5036777;28;20097;-91
2023/08/06 08:14:19;;;;;;;0.00;0.00;;;;;;;;;;5027786;28;20387;-91
2023/08/06 08:16:45;;;;;;;0.00;0.00;;;18.00;99.90;;;;;;5026571;28;20032;-90
2023/08/06 08:19:10;;;;;;;0.00;0.00;;;20.00;99.90;;;;;;5027723;28;20029;-90
2023/08/06 08:21:36;;;;;;;0.00;0.00;;;;;;;;;;5017325;28;20040;-90
2023/08/06 08:24:04;;;;;;;0.00;0.00;;;18.70;99.90;;;;;;5030547;28;20030;-90
2023/08/06 08:26:29;;;;;;;0.00;0.00;;;18.90;99.90;;;;;;5030217;28;20029;-90
2023/08/06 08:28:56;;;;;;;0.00;0.00;;;18.90;99.90;;;;;;5026007;28;20025;-91
2023/08/06 08:31:22;;;;;;;0.00;0.00;;;21.40;99.90;;;;;;5033199;28;20060;-90
2023/08/06 08:33:47;;;;;;;0.00;0.00;;;19.10;99.90;;;;;;5042331;28;20037;-90
2023/08/06 08:36:13;;;;;;;0.00;0.00;;;;;;;;;;5026205;28;20021;-90
2023/08/06 08:38:39;;;;;;;0.00;0.00;;;19.10;99.90;;;;;;5022611;28;20030;-89
2023/08/06 08:41:05;;;;;;;0.00;0.00;;;;;;;;;;5045604;28;20390;-90
2023/08/06 08:43:31;;;;;;;0.00;0.00;;;19.20;99.90;;;;;;5040058;28;20090;-90
2023/08/06 08:46:00;;;;;;;0.00;0.00;;;;;;;;;;5029070;28;20522;-90
2023/08/06 08:48:27;;;;;;;0.00;0.00;;;19.20;99.90;;;;;;5030248;28;20487;-90
2023/08/06 08:50:53;;;;;;;0.00;0.00;;;19.20;99.90;;;;;;5020268;28;20132;-89
2023/08/06 08:53:20;;;;;;;0.00;0.00;;;20.90;99.90;;;;;;5039568;28;20022;-91
2023/08/06 08:55:48;;;;;;;0.00;0.00;;;19.40;99.90;;;;;;5031487;28;20037;-89
2023/08/06 08:58:14;;;;;;;0.00;0.00;;;19.10;99.90;;;;;;5034383;28;20021;-89
2023/08/06 09:00:46;;;;;;;0.00;0.00;;;19.10;99.90;;;;;;5049412;28;20132;-90
2023/08/06 09:03:12;;;;;;;0.00;0.00;;;19.20;99.90;;;;;;5037625;28;20030;-88
2023/08/06 09:05:43;;;;;;;0.00;0.00;;;19.20;99.90;;;;;;5023614;28;20454;-90
2023/08/06 09:08:12;;;;;;;0.00;0.00;;;19.30;99.90;;;;;;5019539;28;20022;-89
2023/08/06 09:10:38;;;;;;;0.00;0.00;;;;;;;;;;5031438;28;20037;-90
2023/08/06 09:13:04;;;;;;;0.00;0.00;;;19.40;99.90;;;;;;5032543;28;20041;-89
2023/08/06 09:15:30;;;;;;;0.00;0.00;;;19.70;99.90;;;;;;5033015;28;20037;-90
2023/08/06 09:17:56;;;;;;;0.00;0.00;;;21.30;99.90;;;;;;5032293;28;20072;-89
2023/08/06 09:20:22;;;;;;;0.00;0.00;;;;;;;;;;5032321;28;20049;-90
2023/08/06 09:22:48;;;;;;;0.00;0.00;;;;;;;;;;5032206;28;20467;-91
2023/08/06 09:25:25;;;;;;;0.00;0.00;;;20.10;99.90;;;;;;5032225;28;20033;-90
2023/08/06 09:27:51;;;;;;;0.00;0.00;;;20.10;99.90;;;;;;5032467;28;20057;-90
2023/08/06 09:30:37;;;;;;;0.00;0.00;;;20.60;99.90;;;;;;5032069;28;20525;-88
2023/08/06 09:33:03;;;;;;;0.00;0.00;;;23.20;99.90;;;;;;5013915;28;20038;-90
2023/08/06 09:35:32;;;;;;;0.00;0.00;;;20.30;99.90;;;;;;5027189;28;20056;-90
2023/08/06 09:38:08;;;;;;;0.00;0.00;;;21.70;99.90;;;;;;5034554;28;20075;-87
2023/08/06 09:40:34;;;;;;;0.00;0.00;;;20.60;99.90;;;;;;5054884;28;20453;-90
2023/08/06 09:43:00;;;;;;;0.00;0.00;;;;;;;;;;5053319;28;20068;-89
2023/08/06 09:45:37;;;;;;;0.00;0.00;;;20.60;99.90;;;;;;5034537;28;20167;-89
2023/08/06 09:48:09;;;;;;;0.00;0.00;;;21.00;99.90;;;;;;5034267;28;20104;-89
2023/08/06 09:50:37;;;;;;;0.00;0.00;;;20.90;99.90;;;;;;5034429;28;20030;-91
2023/08/06 09:53:05;;;;;;;0.00;0.00;;;20.80;99.90;;;;;;5031823;28;20032;-89
2023/08/06 09:55:32;;;;;;;0.00;0.00;;;21.30;99.90;;;;;;5034039;28;20037;-91
2023/08/06 09:57:59;;;;;;;0.00;0.00;;;21.70;99.90;;;;;;5033877;28;20561;-89
2023/08/06 10:00:24;;;;;;;0.00;0.00;;;21.30;99.90;;;;;;5033889;28;20430;-90
2023/08/06 10:02:54;;;;;;;0.00;0.00;;;;;;;;;;5039448;28;20021;-89
2023/08/06 10:05:20;;;;;;;;;;;21.40;99.90;;;;;;5034280;28;20108;-90
2023/08/06 10:07:47;;;;;;;0.00;0.00;;;21.60;99.90;;;;;;5034023;28;20363;-90
2023/08/06 10:10:12;;;;;;;0.00;0.00;;;21.50;99.90;;;;;;5043741;28;20436;-90
2023/08/06 10:12:46;;;;;;;0.00;0.00;;;21.80;99.90;;;;;;5053832;28;20024;-89
2023/08/06 10:15:17;;;;;;;0.00;0.00;;;22.00;99.90;;;;;;5042213;28;20120;-89
2023/08/06 10:17:45;;;;;;;0.00;0.00;;;22.20;99.90;;;;;;5047654;28;20033;-88
2023/08/06 10:20:11;;;;;;;0.00;0.00;;;23.20;99.90;;;;;;5053327;28;20086;-89
2023/08/06 10:22:44;;;;;;;0.00;0.00;;;23.10;99.90;;;;;;5032215;28;20053;-90
2023/08/06 10:25:09;;;;;;;0.00;0.00;;;22.50;99.90;;;;;;5034920;28;20033;-89
2023/08/06 10:27:40;;;;;;;0.00;0.00;;;22.70;99.90;;;;;;5051595;28;20025;-89
2023/08/06 10:30:28;;;;;;;0.00;0.00;;;22.70;99.90;;;;;;5053238;28;20033;-90
2023/08/06 10:33:04;;;;;;;0.00;0.00;;;22.80;99.90;;;;;;5043712;28;20474;-89
2023/08/06 10:35:43;;;;;;;0.00;0.00;;;22.70;99.90;;;;;;5021101;28;20029;-88
2023/08/06 10:38:17;;;;;;;0.00;0.00;;;22.70;99.90;;;;;;5030759;28;20024;-88
2023/08/06 10:40:52;;;;;;;0.00;0.00;;;22.70;99.90;;;;;;5027648;28;20033;-91
2023/08/06 10:43:32;;;;;;;0.00;0.00;;;22.60;99.90;;;;;;5040306;28;20079;-91
2023/08/06 10:45:59;;;;;;;0.00;0.00;;;22.90;99.90;;;;;;5029191;28;20025;-89
2023/08/06 10:48:41;;;;;;;0.00;0.00;;;22.80;99.90;;;;;;5029431;28;20465;-90
2023/08/06 10:51:12;;;;;;;0.00;0.00;;;23.00;99.90;;;;;;5032093;28;20112;-89
2023/08/06 10:53:41;;;;;;;0.00;0.00;;;23.10;99.90;;;;;;5034488;28;20025;-91
2023/08/06 10:56:17;;;;;;;;;;;23.00;99.90;;;;;;5033851;28;20435;-91
2023/08/06 10:58:44;;;;;;;0.00;0.00;;;22.80;99.90;;;;;;5029301;28;20400;-88
2023/08/06 11:01:10;;;;;;;0.00;0.00;;;22.70;99.90;;;;;;5026753;28;20025;-89
2023/08/06 11:03:37;;;;;;;0.00;0.00;;;22.90;99.90;;;;;;5032967;28;20028;-90
2023/08/06 11:06:02;;;;;;;0.00;0.00;;;22.90;99.90;;;;;;5040055;28;20366;-89
2023/08/06 11:08:32;;;;;;;0.00;0.00;;;23.00;99.90;;;;;;5028215;28;20032;-89
2023/08/06 11:11:12;;;;;;;0.00;0.00;;;23.00;99.90;;;;;;5032217;28;20367;-88
2023/08/06 11:13:42;;;;;;;0.00;0.00;;;22.80;99.90;;;;;;5031600;28;20026;-89
2023/08/06 11:16:08;;;;;;;;;;;22.90;99.90;;;;;;5029979;28;20029;-89
2023/08/06 11:18:34;;;;;;;0.00;0.00;;;;;;;;;;5026396;28;19920;-89
2023/08/06 11:21:01;;;;;;;0.00;0.00;;;23.10;99.90;;;;;;5024057;28;20184;-88
2023/08/06 11:23:28;;;;;;;0.00;0.00;;;23.00;99.90;;;;;;5030294;28;20068;-89
2023/08/06 11:25:55;;;;;;;0.00;0.00;;;23.00;99.90;;;;;;5031971;28;20171;-87
2023/08/06 11:28:23;;;;;;;0.00;0.00;;;24.30;99.90;;;;;;5029293;28;20044;-90
2023/08/06 11:30:49;;;;;;;0.00;0.00;;;23.00;99.90;;;;;;5032054;28;20022;-89
2023/08/06 11:33:25;;;;;;;0.00;0.00;;;23.00;99.90;;;;;;5032763;28;20029;-89
2023/08/06 11:35:51;;;;;;;0.00;0.00;;;23.30;99.90;;;;;;5035456;28;20061;-89
2023/08/06 11:38:18;;;;;;;0.00;0.00;;;22.60;99.90;;;;;;5022451;28;20025;-89
2023/08/06 11:40:45;;;;;;;0.00;0.00;;;22.60;99.90;;;;;;5039532;28;20545;-89
2023/08/06 11:43:12;;;;;;;0.00;0.00;;;22.40;99.90;;;;;;5027822;28;20514;-86
2023/08/06 11:45:37;;;;;;;0.00;0.00;;;24.70;99.90;;;;;;5040143;28;20029;-87
2023/08/06 11:48:04;;;;;;;0.00;0.00;;;;;;;;;;5033615;28;20113;-87
2023/08/06 11:50:30;;;;;;;0.00;0.00;;;22.60;99.90;;;;;;5021031;28;20108;-89
2023/08/06 11:53:00;;;;;;;0.00;0.00;;;23.70;99.90;;;;;;5029446;28;20428;-89
2023/08/06 11:55:28;;;;;;;0.00;0.00;;;22.70;99.90;;;;;;5029058;28;20029;-87
2023/08/06 11:57:54;;;;;;;0.00;0.00;;;24.00;99.90;;;;;;5033609;28;20030;-90
2023/08/06 12:00:22;;;;;;;0.00;0.00;;;23.20;99.90;;;;;;5019992;28;20026;-89
2023/08/06 12:02:50;;;;;;;0.00;0.00;;;24.10;99.90;;;;;;5032154;28;20112;-89
2023/08/06 12:05:25;;;;;;;0.00;0.00;;;25.40;99.90;;;;;;5040783;28;20053;-88
2023/08/06 12:07:55;;;;;;;0.00;0.00;;;25.60;99.90;;;;;;5033858;28;20512;-88
2023/08/06 12:10:21;;;;;;;0.00;0.00;;;24.30;99.90;;;;;;5035592;28;20040;-89
2023/08/06 12:12:47;;;;;;;0.00;0.00;;;23.70;99.90;;;;;;5030993;28;20693;-89
2023/08/06 12:15:13;;;;;;;0.00;0.00;;;;;;;;;;5031507;28;20026;-88
2023/08/06 12:17:39;;;;;;;0.00;0.00;;;23.70;99.90;;;;;;5029063;28;20094;-88
2023/08/06 12:20:06;;;;;;;0.00;0.00;;;23.30;99.90;;;;;;5034526;28;20021;-89
2023/08/06 12:22:37;;;;;;;0.00;0.00;;;23.30;99.90;;;;;;5030836;28;20036;-88
2023/08/06 12:25:04;;;;;;;0.00;0.00;;;23.80;99.90;;;;;;5029357;28;20446;-91
2023/08/06 12:27:29;;;;;;;0.00;0.00;;;23.30;99.90;;;;;;5028845;28;20053;-88
2023/08/06 12:29:55;;;;;;;0.00;0.00;;;23.40;99.90;;;;;;5014622;28;20049;-88
2023/08/06 12:32:21;;;;;;;0.00;0.00;;;;;;;;;;5039985;28;20109;-88
2023/08/06 12:34:47;;;;;;;0.00;0.00;;;23.80;99.90;;;;;;5029678;28;20021;-87
2023/08/06 12:37:13;;;;;;;0.00;0.00;;;24.10;99.90;;;;;;5025064;28;20029;-87
2023/08/06 12:39:38;;;;;;;0.00;0.00;;;;;;;;;;5027811;28;20030;-87
2023/08/06 12:42:05;;;;;;;0.00;0.00;;;23.70;99.90;;;;;;5025626;28;20029;-89
2023/08/06 12:44:32;;;;;;;0.00;0.00;;;24.10;99.90;;;;;;5038546;28;20425;-87
2023/08/06 12:46:58;;;;;;;0.00;0.00;;;24.20;99.90;;;;;;5039657;28;20107;-89
2023/08/06 12:49:25;;;;;;;0.00;0.00;;;25.20;99.90;;;;;;5036131;28;20029;-87
2023/08/06 12:51:52;;;;;;;0.00;0.00;;;24.00;99.90;;;;;;5033956;28;20021;-89
2023/08/06 12:54:19;;;;;;;0.00;0.00;;;24.00;99.90;;;;;;5026912;28;20513;-89
2023/08/06 12:56:46;;;;;;;0.00;0.00;;;23.90;99.90;;;;;;5035567;28;20053;-88
2023/08/06 12:59:13;;;;;;;0.00;0.00;;;23.60;99.90;;;;;;5029327;28;20025;-89
2023/08/06 13:01:38;;;;;;;0.00;0.00;;;23.50;99.90;;;;;;5033135;28;20030;-88
2023/08/06 13:04:04;;;;;;;0.00;0.00;;;23.30;99.90;;;;;;5030952;28;20018;-89
2023/08/06 13:06:30;;;;;;;0.00;0.00;;;24.00;99.90;;;;;;5036412;28;20040;-89
2023/08/06 13:08:57;;;;;;;0.00;0.00;;;24.10;99.90;;;;;;5033316;28;20061;-88
2023/08/06 13:11:22;;;;;;;0.00;0.00;;;23.00;99.90;;;;;;5025069;28;20032;-89
2023/08/06 13:13:48;;;;;;;0.00;0.00;;;;;;;;;;5035274;28;20116;-88
2023/08/06 13:16:14;;;;;;;0.00;0.00;;;;;;;;;;5036075;28;20025;-88
2023/08/06 13:18:40;;;;;;;0.00;0.00;;;22.70;99.90;;;;;;5030230;28;20064;-87
2023/08/06 13:21:05;;;;;;;0.00;0.00;;;22.60;99.90;;;;;;5035117;28;20046;-88
2023/08/06 13:23:31;;;;;;;0.00;0.00;;;22.60;99.90;;;;;;5034447;28;20033;-89
2023/08/06 13:25:56;;;;;;;0.00;0.00;;;22.50;99.90;;;;;;5029395;28;20029;-88
2023/08/06 13:28:22;;;;;;;0.00;0.00;;;;;;;;;;5030871;28;20080;-87
2023/08/06 13:30:48;;;;;;;0.00;0.00;;;;;;;;;;5035135;28;20032;-89
2023/08/06 13:33:14;;;;;;;0.00;0.00;;;;;;;;;;5034875;28;20029;-88
2023/08/06 13:35:40;;;;;;;0.00;0.00;;;;;;;;;;5033482;28;20071;-88
2023/08/06 13:38:06;;;;;;;0.00;0.00;;;22.90;99.90;;;;;;5034106;28;20457;-88
2023/08/06 13:40:33;;;;;;;0.00;0.00;;;23.00;99.90;;;;;;5029059;28;20029;-87
2023/08/06 13:42:59;;;;;;;0.00;0.00;;;23.80;99.90;;;;;;5030023;28;20484;-89
2023/08/06 13:45:25;;;;;;;0.00;0.00;;;;;;;;;;5033882;28;20028;-88
2023/08/06 13:47:51;;;;;;;0.00;0.00;;;;;;;;;;5034795;28;20025;-90
2023/08/06 13:50:17;;;;;;;0.00;0.00;;;;;;;;;;5036809;28;20052;-88
2023/08/06 13:52:43;;;;;;;0.00;0.00;;;23.40;99.90;;;;;;5031442;28;20053;-89
2023/08/06 13:55:09;;;;;;;0.00;0.00;;;23.30;99.90;;;;;;5034315;28;20445;-89
2023/08/06 13:57:34;;;;;;;0.00;0.00;;;23.30;99.90;;;;;;5031307;28;20026;-89
2023/08/06 14:00:01;;;;;;;0.00;0.00;;;;;;;;;;5033433;28;20449;-87
2023/08/06 14:02:26;;;;;;;0.00;0.00;;;23.30;99.90;;;;;;5025202;28;20047;-88
2023/08/06 14:04:53;;;;;;;0.00;0.00;;;23.20;99.90;;;;;;5031470;28;20025;-87
2023/08/06 14:07:18;;;;;;;0.00;0.00;;;23.70;99.90;;;;;;5026432;28;20026;-92
2023/08/06 14:09:45;;;;;;;0.00;0.00;;;;;;;;;;5032797;28;20033;-90
2023/08/06 14:12:10;;;;;;;0.00;0.00;;;23.10;99.90;;;;;;5030504;28;20045;-88
2023/08/06 14:14:36;;;;;;;0.00;0.00;;;22.90;99.90;;;;;;5032618;28;20541;-89
2023/08/06 14:17:01;;;;;;;0.00;0.00;;;25.10;99.90;;;;;;5033817;28;20401;-88
2023/08/06 14:19:27;;;;;;;0.00;0.00;;;25.40;99.90;;;;;;5031545;28;20513;-88
2023/08/06 14:21:53;;;;;;;0.00;0.00;;;;;;;;;;5030538;28;20478;-88
2023/08/06 14:24:20;;;;;;;0.00;0.00;;;22.90;99.90;;;;;;5033388;28;20064;-88
2023/08/06 14:26:46;;;;;;;0.00;0.00;;;22.70;99.90;;;;;;5027046;28;20034;-87
2023/08/06 14:29:13;;;;;;;0.00;0.00;;;;;;;;;;5037892;28;20029;-89
2023/08/06 14:31:39;;;;;;;0.00;0.00;;;22.50;99.90;;;;;;5036679;28;20040;-91
2023/08/06 14:34:05;;;;;;;0.00;0.00;;;22.60;99.90;;;;;;5029877;28;20529;-88
2023/08/06 14:36:31;;;;;;;0.00;0.00;;;;;;;;;;5032623;28;20025;-91
2023/08/06 14:38:56;;;;;;;0.00;0.00;;;22.50;99.90;;;;;;5034258;28;20075;-89
2023/08/06 14:41:22;;;;;;;0.00;0.00;;;23.20;99.90;;;;;;5029318;28;20030;-89
2023/08/06 14:43:47;;;;;;;0.00;0.00;;;22.60;99.90;;;;;;5031281;28;20297;-89
2023/08/06 14:46:13;;;;;;;0.00;0.00;;;;;;;;;;5031762;28;20021;-89
2023/08/06 14:48:39;;;;;;;0.00;0.00;;;22.50;99.80;;;;;;5030803;28;20036;-87
2023/08/06 14:51:05;;;;;;;0.00;0.00;;;;;;;;;;5027980;28;20025;-88
2023/08/06 14:53:31;;;;;;;0.00;0.00;;;;;;;;;;5019060;28;20022;-89
2023/08/06 14:55:56;;;;;;;0.00;0.00;;;22.20;99.80;;;;;;5023975;28;20041;-88
2023/08/06 14:58:22;;;;;;;0.00;0.00;;;;;;;;;;5033564;28;20475;-88
2023/08/06 15:00:48;;;;;;;0.00;0.00;;;22.20;99.90;;;;;;5026143;28;20038;-88
2023/08/06 15:03:13;;;;;;;0.00;0.00;;;22.00;99.90;;;;;;5031172;28;20036;-89
2023/08/06 15:05:39;;;;;;;0.00;0.00;;;23.50;99.90;;;;;;5033460;28;20033;-88
2023/08/06 15:08:05;;;;;;;0.00;0.00;;;;;;;;;;5031611;28;20034;-88
2023/08/06 15:10:31;;;;;;;0.00;0.00;;;;;;;;;;5032577;28;20328;-88
2023/08/06 15:12:57;;;;;;;0.00;0.00;;;;;;;;;;5026709;28;20022;-86
2023/08/06 15:15:22;;;;;;;0.00;0.00;;;;;;;;;;5028894;28;20017;-88
2023/08/06 15:17:48;;;;;;;0.00;0.00;;;20.40;99.90;;;;;;5031852;28;20029;-87
2023/08/06 15:20:14;;;;;;;0.00;0.00;;;;;;;;;;5031764;28;20506;-87
2023/08/06 15:22:40;;;;;;;0.00;0.00;;;20.00;99.90;;;;;;5028892;28;20037;-88
2023/08/06 15:25:06;;;;;;;0.00;0.00;;;19.80;99.90;;;;;;5026486;28;20507;-87
2023/08/06 15:27:33;;;;;;;0.00;0.00;;;;;;;;;;5029724;28;20040;-83
2023/08/06 15:29:59;;;;;;;0.00;0.00;;;19.70;99.90;;;;;;5031115;28;20045;-89
2023/08/06 15:32:26;;;;;;;0.00;0.00;;;;;;;;;;5029271;28;20037;-87
2023/08/06 15:34:51;;;;;;;0.00;0.00;;;19.80;99.90;;;;;;5024325;28;20029;-89
2023/08/06 15:37:18;;;;;;;0.00;0.00;;;21.30;99.90;;;;;;5036501;28;20026;-88
2023/08/06 15:39:43;;;;;;;0.00;0.00;;;20.70;99.90;;;;;;5028372;28;20121;-89
2023/08/06 15:42:09;;;;;;;0.00;0.00;;;;;;;;;;5028168;28;20479;-89
2023/08/06 15:44:35;;;;;;;0.00;0.00;;;18.80;99.90;;;;;;5029961;28;20052;-87
2023/08/06 15:47:00;;;;;;;0.00;0.00;;;18.80;99.90;;;;;;5036497;28;20029;-85
2023/08/06 15:49:26;;;;;;;0.00;0.00;;;;;;;;;;5026669;28;20123;-87
2023/08/06 15:51:52;;;;;;;0.00;0.00;;;18.80;99.90;;;;;;5012348;28;20045;-88
2023/08/06 15:54:19;;;;;;;0.00;0.00;;;;;;;;;;5022943;28;20224;-88
2023/08/06 15:56:44;;;;;;;0.00;0.00;;;18.10;99.90;;;;;;5019599;28;20045;-88
2023/08/06 15:59:28;;;;;;;0.00;0.00;;;17.90;99.90;;;;;;5018083;28;20049;-86
2023/08/06 16:01:54;;;;;;;0.00;0.00;;;19.00;99.90;;;;;;5037254;28;20109;-89
2023/08/06 16:04:20;;;;;;;0.00;0.00;;;18.40;99.90;;;;;;5045708;28;20079;-86
2023/08/06 16:06:46;;;;;;;0.05;0.05;;;;;;;;;;5019156;28;20025;-87
2023/08/06 16:09:12;;;;;;;0.00;0.00;;;18.00;99.90;;;;;;5020859;28;20033;-86
2023/08/06 16:11:39;;;;;;;0.00;0.00;;;18.60;99.90;;;;;;5010951;28;20061;-88
2023/08/06 16:14:05;;;;;;;0.00;0.00;;;18.00;99.90;;;;;;5020862;28;20021;-88
2023/08/06 16:16:32;;;;;;;0.00;0.00;;;;;;;;;;5016274;28;20030;-88
2023/08/06 16:18:58;;;;;;;0.00;0.00;;;18.00;99.90;;;;;;5027550;28;20490;-90
2023/08/06 16:21:24;;;;;;;0.00;0.00;;;18.00;99.90;;;;;;5025394;28;20030;-90
2023/08/06 16:23:50;;;;;;;0.00;0.00;;;18.00;99.90;;;;;;5037094;28;20501;-90
2023/08/06 16:26:16;;;;;;;0.00;0.00;;;;;;;;;;5031933;28;20117;-90
2023/08/06 16:28:41;;;;;;;0.00;0.00;;;17.90;99.90;;;;;;5031812;28;20036;-89
2023/08/06 16:31:10;;;;;;;0.00;0.00;;;;;;;;;;5026638;28;20033;-88
2023/08/06 16:33:37;;;;;;;0.00;0.00;;;17.70;99.90;;;;;;5026833;28;20037;-88
2023/08/06 16:36:03;;;;;;;0.00;0.00;;;17.70;99.90;;;;;;5025898;28;20495;-88
2023/08/06 16:38:28;;;;;;;0.00;0.00;;;17.70;99.90;;;;;;5028443;28;20044;-89
2023/08/06 16:40:56;;;;;;;0.00;0.00;;;17.70;99.90;;;;;;5026573;28;20030;-90
2023/08/06 16:43:23;;;;;;;0.00;0.00;;;19.00;99.90;;;;;;5024870;28;20029;-91
2023/08/06 16:45:49;;;;;;;0.00;0.00;;;17.70;99.90;;;;;;5032400;28;20021;-90
2023/08/06 16:48:15;;;;;;;0.00;0.00;;;;;;;;;;5043461;28;20055;-90
2023/08/06 16:50:41;;;;;;;0.00;0.00;;;;;;;;;;5031473;28;20037;-90
2023/08/06 16:53:07;;;;;;;0.00;0.00;;;17.50;99.90;;;;;;5024142;28;20018;-91
2023/08/06 16:55:33;;;;;;;0.00;0.00;;;17.50;99.90;;;;;;5027302;28;20116;-90
2023/08/06 16:57:59;;;;;;;0.00;0.00;;;;;;;;;;5029610;28;20053;-90
2023/08/06 17:00:27;;;;;;;0.00;0.00;;;17.50;99.90;;;;;;5025802;28;20371;-90
2023/08/06 17:02:52;;;;;;;0.00;0.00;;;17.50;99.90;;;;;;5030850;28;20112;-89
2023/08/06 17:05:18;;;;;;;0.00;0.00;;;;;;;;;;5036657;28;20117;-90
2023/08/06 17:07:48;;;;;;;0.00;0.00;;;;;;;;;;5030334;28;20036;-91
2023/08/06 17:10:14;;;;;;;0.00;0.00;;;17.20;99.90;;;;;;5030908;28;20496;-90
2023/08/06 17:12:39;;;;;;;0.00;0.00;;;17.20;99.90;;;;;;5025512;28;20117;-90
2023/08/06 17:15:05;;;;;;;0.00;0.00;;;17.10;99.90;;;;;;5030502;28;20045;-90
2023/08/06 17:17:31;;;;;;;0.00;0.00;;;17.10;99.90;;;;;;5024003;28;20049;-90
2023/08/06 17:19:57;;;;;;;0.00;0.00;;;;;;;;;;5025687;28;20056;-90
2023/08/06 17:22:23;;;;;;;0.00;0.00;;;;;;;;;;5023389;28;20041;-89
2023/08/06 17:24:49;;;;;;;0.00;0.00;;;;;;;;;;5023084;28;20030;-89
2023/08/06 17:27:15;;;;;;;0.00;0.00;;;;;;;;;;5026858;28;20037;-89
2023/08/06 17:29:41;;;;;;;0.00;0.00;;;;;;;;;;5030357;28;20069;-89
2023/08/06 17:32:07;;;;;;;0.00;0.00;;;17.00;99.90;;;;;;5032060;28;20028;-89
2023/08/06 17:34:33;;;;;;;0.00;0.00;;;;;;;;;;5029869;28;20112;-89
2023/08/06 17:37:00;;;;;;;0.00;0.00;;;;;;;;;;5028921;28;20161;-90
2023/08/06 17:39:25;;;;;;;0.00;0.00;;;16.70;99.90;;;;;;5028871;28;20044;-90
2023/08/06 17:41:51;;;;;;;0.00;0.00;;;;;;;;;;5031934;28;20041;-89
2023/08/06 17:44:17;;;;;;;0.00;0.00;;;;;;;;;;5025655;28;20037;-89
2023/08/06 17:46:43;;;;;;;0.00;0.00;;;;;;;;;;5031246;28;20375;-86
2023/08/06 17:49:09;;;;;;;0.00;0.00;;;;;;;;;;5029076;28;20036;-86
2023/08/06 17:51:35;;;;;;;0.00;0.00;;;;;;;;;;5025310;28;20025;-87
2023/08/06 17:54:01;;;;;;;0.00;0.00;;;;;;;;;;5032059;28;20025;-89
2023/08/06 17:56:27;;;;;;;0.00;0.00;;;;;;;;;;5027856;28;20052;-89
2023/08/06 17:58:52;;;;;;;0.00;0.00;;;16.10;99.90;;;;;;5034991;28;20032;-89
2023/08/06 18:01:18;;;;;;;0.00;0.00;;;;;;;;;;5027507;28;20030;-89
2023/08/06 18:03:46;;;;;;;0.00;0.00;;;;;;;;;;5022897;28;20556;-89
2023/08/06 18:06:12;;;;;;;0.00;0.00;;;16.20;99.90;;;;;;5028310;28;20033;-88
2023/08/06 18:08:38;;;;;;;0.00;0.00;;;;;;;;;;5024351;28;20033;-89
2023/08/06 18:11:03;;;;;;;0.00;0.00;;;16.20;99.90;;;;;;5020904;28;20395;-88
2023/08/06 18:13:29;;;;;;;0.00;0.00;;;16.10;99.90;;;;;;5031612;28;20032;-87
2023/08/06 18:15:55;;;;;;;0.00;0.00;;;;;;;;;;5021599;28;20113;-88
2023/08/06 18:18:21;;;;;;;0.00;0.00;;;;;;;;;;5029604;28;20417;-89
2023/08/06 18:20:47;;;;;;;0.00;0.00;;;;;;;;;;5026603;28;20546;-88
2023/08/06 18:23:12;;;;;;;0.00;0.00;;;15.90;99.90;;;;;;5025703;28;20033;-90